Time;durP1;ratioP1;P1;durP2;ratioP2;P2;SDS_P1;SDS_P2;PMS_P1;PMS_P2;Temp;Humidity;BMP_temperature;BMP_pressure;BME280_temperature;BME280_humidity;BME280_pressure;Samples;Min_cycle;Max_cycle;Signal;HPM_P1;HPM_P2
2023/04/05 00:00:19;;;;;;;7.55;7.05;;;5.40;37.90;;;;;;20592;6814;282263;-79
2023/04/05 00:02:45;;;;;;;7.57;7.07;;;5.30;37.70;;;;;;20590;6814;297591;-79
2023/04/05 00:05:10;;;;;;;7.32;6.72;;;5.60;37.40;;;;;;20609;6814;311380;-79
2023/04/05 00:07:37;;;;;;;7.82;7.12;;;5.70;36.90;;;;;;20601;6814;309122;-81
2023/04/05 00:10:02;;;;;;;7.47;6.87;;;5.80;36.80;;;;;;20600;6814;306895;-81
2023/04/05 00:12:27;;;;;;;7.20;6.53;;;5.90;36.80;;;;;;20820;6814;117940;-82
2023/04/05 00:14:53;;;;;;;7.00;6.47;;;5.70;37.00;;;;;;20801;6814;117364;-79
2023/04/05 00:17:18;;;;;;;7.40;6.80;;;5.30;37.50;;;;;;20735;6840;124010;-82
2023/04/05 00:19:44;;;;;;;7.65;6.93;;;4.90;37.90;;;;;;20604;6814;306043;-81
2023/04/05 00:22:09;;;;;;;8.07;7.37;;;5.00;38.50;;;;;;20608;6814;282122;-79
2023/04/05 00:24:42;;;;;;;8.30;7.60;;;5.50;37.90;;;;;;20603;6814;340431;-79
2023/04/05 00:27:01;;;;;;;8.03;7.43;;;5.50;37.90;;;;;;20569;6814;277991;-79
2023/04/05 00:29:27;;;;;;;7.07;6.47;;;5.70;37.60;;;;;;20803;6814;118175;-81
2023/04/05 00:31:52;;;;;;;6.70;6.20;;;5.50;37.70;;;;;;20787;6825;117395;-79
2023/04/05 00:34:18;;;;;;;7.40;6.80;;;5.20;38.20;;;;;;20613;6814;310715;-79
2023/04/05 00:36:44;;;;;;;6.90;6.30;;;5.20;38.20;;;;;;20821;6814;118406;-79
2023/04/05 00:39:09;;;;;;;6.90;6.30;;;5.10;38.20;;;;;;20727;6840;123670;-82
2023/04/05 00:41:35;;;;;;;7.05;6.55;;;4.70;38.90;;;;;;20819;6814;118099;-81
2023/04/05 00:44:02;;;;;;;6.93;6.33;;;4.70;39.00;;;;;;20821;6814;117044;-79
2023/04/05 00:46:27;;;;;;;7.97;7.37;;;4.50;39.10;;;;;;20606;6814;281120;-79
2023/04/05 00:48:53;;;;;;;7.32;6.70;;;4.60;39.40;;;;;;20801;6814;117092;-79
2023/04/05 00:51:19;;;;;;;7.97;7.37;;;4.60;39.00;;;;;;20606;6814;306925;-81
2023/04/05 00:53:46;;;;;;;8.20;7.50;;;4.80;39.50;;;;;;20604;6814;277951;-80
2023/04/05 00:56:11;;;;;;;8.53;7.80;;;5.10;38.70;;;;;;20816;6814;117384;-80
2023/04/05 00:58:40;;;;;;;6.95;6.37;;;5.10;38.50;;;;;;20817;6814;118072;-81
2023/04/05 01:01:05;;;;;;;7.03;6.43;;;4.80;38.70;;;;;;20796;6814;117938;-81
2023/04/05 01:03:29;;;;;;;7.43;6.82;;;4.60;39.20;;;;;;20597;6814;304132;-78
2023/04/05 01:05:55;;;;;;;7.57;7.03;;;4.70;39.50;;;;;;20822;6812;117141;-78
2023/04/05 01:08:30;;;;;;;6.77;6.17;;;4.70;39.30;;;;;;20437;6814;117302;-79
2023/04/05 01:10:56;;;;;;;6.80;6.30;;;4.60;39.50;;;;;;20784;6814;118862;-82
2023/04/05 01:13:21;;;;;;;7.65;7.03;;;4.40;39.70;;;;;;20585;6814;277129;-79
2023/04/05 01:15:47;;;;;;;7.63;6.97;;;4.50;39.50;;;;;;20591;6814;306830;-81
2023/04/05 01:18:14;;;;;;;7.35;6.85;;;5.20;38.20;;;;;;20608;6814;293561;-81
2023/04/05 01:20:41;;;;;;;7.90;7.20;;;5.10;38.00;;;;;;20815;6814;117006;-79
2023/04/05 01:23:30;;;;;;;7.45;6.95;;;5.10;38.10;;;;;;20571;6814;277513;-78
2023/04/05 01:26:26;;;;;;;7.47;6.70;;;5.10;38.10;;;;;;20784;6814;116872;-80
2023/04/05 01:29:06;;;;;;;7.68;7.07;;;4.90;38.20;;;;;;20584;6814;340588;-79
2023/04/05 01:31:55;;;;;;;7.30;6.70;;;5.00;38.20;;;;;;20801;6814;117921;-81
2023/04/05 01:34:44;;;;;;;7.57;7.07;;;4.90;38.20;;;;;;20590;6814;306924;-81
2023/04/05 01:37:09;;;;;;;7.07;6.47;;;4.90;38.10;;;;;;20625;6814;120921;-80
2023/04/05 01:39:35;;;;;;;7.55;6.95;;;4.80;38.30;;;;;;20588;6814;307323;-81
2023/04/05 01:42:01;;;;;;;6.50;6.05;;;4.70;38.50;;;;;;20818;6814;118526;-79
2023/04/05 01:44:27;;;;;;;7.50;6.87;;;4.70;38.50;;;;;;20596;6814;306884;-80
2023/04/05 01:46:52;;;;;;;7.80;6.37;;;4.70;38.60;;;;;;20805;6814;118148;-81
2023/04/05 01:49:18;;;;;;;6.82;6.20;;;4.60;38.50;;;;;;20821;6814;121209;-80
2023/04/05 01:51:43;;;;;;;7.83;7.23;;;4.40;38.90;;;;;;20609;6814;300616;-79
2023/04/05 01:54:09;;;;;;;7.27;6.70;;;4.50;39.90;;;;;;20601;6814;336395;-79
2023/04/05 01:56:34;;;;;;;7.90;7.40;;;4.80;39.10;;;;;;20599;6814;336334;-80
2023/04/05 01:59:01;;;;;;;7.55;6.97;;;4.90;37.90;;;;;;20801;6814;118001;-81
2023/04/05 02:01:26;;;;;;;7.53;7.03;;;4.90;37.90;;;;;;20816;6814;117491;-82
2023/04/05 02:03:52;;;;;;;8.10;7.45;;;4.60;38.30;;;;;;20612;6814;277060;-80
2023/04/05 02:06:17;;;;;;;8.63;8.02;;;4.60;38.50;;;;;;20526;6840;278396;-80
2023/04/05 02:08:43;;;;;;;8.40;7.80;;;4.80;38.20;;;;;;20603;6814;297573;-82
2023/04/05 02:11:09;;;;;;;8.47;7.77;;;5.00;37.80;;;;;;20589;6814;310826;-81
2023/04/05 02:13:34;;;;;;;8.40;7.75;;;5.20;37.50;;;;;;20608;6814;306852;-79
2023/04/05 02:16:00;;;;;;;8.20;7.50;;;5.30;37.40;;;;;;20610;6814;285925;-82
2023/04/05 02:18:31;;;;;;;7.62;7.00;;;5.40;37.10;;;;;;20828;6813;118421;-80
2023/04/05 02:21:01;;;;;;;7.63;7.03;;;5.10;37.30;;;;;;20801;6814;116934;-79
2023/04/05 02:23:26;;;;;;;7.10;6.53;;;4.70;38.00;;;;;;20810;6814;118120;-79
2023/04/05 02:25:52;;;;;;;8.07;7.57;;;4.30;38.60;;;;;;20601;6814;311926;-80
2023/04/05 02:28:18;;;;;;;7.20;6.70;;;4.30;38.80;;;;;;20819;6814;116826;-79
2023/04/05 02:30:44;;;;;;;7.62;6.93;;;4.20;38.90;;;;;;20819;6814;118091;-81
2023/04/05 02:33:09;;;;;;;6.83;6.33;;;4.00;39.20;;;;;;20799;6814;119734;-81
2023/04/05 02:35:35;;;;;;;8.55;7.87;;;3.80;39.50;;;;;;20519;6840;337386;-79
2023/04/05 02:38:00;;;;;;;7.75;7.25;;;3.90;39.80;;;;;;20813;6814;119626;-80
2023/04/05 02:40:26;;;;;;;7.75;7.12;;;3.90;39.80;;;;;;20811;6814;116818;-80
2023/04/05 02:42:51;;;;;;;7.70;7.10;;;3.80;40.00;;;;;;20794;6814;118095;-79
2023/04/05 02:45:17;;;;;;;9.63;7.65;;;3.60;40.20;;;;;;20821;6814;116972;-81
2023/04/05 02:47:44;;;;;;;8.57;7.97;;;3.40;40.40;;;;;;20599;6814;311860;-80
2023/04/05 02:50:10;;;;;;;9.13;8.40;;;3.60;40.70;;;;;;20594;6814;311481;-80
2023/04/05 02:52:36;;;;;;;8.07;7.30;;;4.00;40.00;;;;;;20727;6840;117284;-82
2023/04/05 02:55:01;;;;;;;7.70;7.18;;;4.00;39.80;;;;;;20799;6814;117871;-81
2023/04/05 02:57:26;;;;;;;9.55;8.68;;;3.80;40.10;;;;;;20587;6814;307340;-80
2023/04/05 02:59:53;;;;;;;7.97;7.20;;;3.90;40.00;;;;;;20814;6814;118201;-79
2023/04/05 03:02:18;;;;;;;7.77;7.13;;;3.90;40.00;;;;;;20816;6814;117109;-80
2023/04/05 03:04:44;;;;;;;7.75;7.15;;;3.80;40.20;;;;;;20818;6814;117861;-81
2023/04/05 03:07:13;;;;;;;7.87;7.27;;;3.60;40.50;;;;;;20796;6814;117930;-79
2023/04/05 03:09:37;;;;;;;9.20;8.40;;;3.40;40.60;;;;;;20516;6840;286241;-79
2023/04/05 03:12:02;;;;;;;9.17;8.47;;;4.00;40.10;;;;;;20603;6814;306899;-79
2023/04/05 03:14:27;;;;;;;9.10;8.33;;;4.00;40.10;;;;;;20598;6814;277244;-79
2023/04/05 03:16:53;;;;;;;8.10;7.50;;;4.20;39.30;;;;;;20798;6814;119007;-79
2023/04/05 03:19:21;;;;;;;7.17;6.57;;;4.20;39.30;;;;;;20817;6814;117278;-80
2023/04/05 03:21:45;;;;;;;7.93;7.20;;;4.00;39.90;;;;;;20805;6814;117079;-80
2023/04/05 03:24:10;;;;;;;8.52;7.93;;;3.70;40.20;;;;;;20603;6814;310616;-82
2023/04/05 03:26:35;;;;;;;8.80;8.13;;;3.80;40.40;;;;;;20605;6814;311331;-82
2023/04/05 03:29:02;;;;;;;8.30;7.70;;;4.50;39.10;;;;;;20503;6838;336944;-81
2023/04/05 03:31:29;;;;;;;7.50;6.80;;;4.40;39.10;;;;;;20818;6814;117695;-80
2023/04/05 03:33:54;;;;;;;7.65;7.10;;;4.30;39.10;;;;;;20813;6814;116784;-79
2023/04/05 03:36:20;;;;;;;8.70;8.00;;;4.00;40.20;;;;;;20599;6814;310415;-79
2023/04/05 03:38:45;;;;;;;8.60;7.87;;;4.00;39.60;;;;;;20582;6814;282139;-82
2023/04/05 03:41:11;;;;;;;7.07;6.60;;;4.30;39.20;;;;;;20822;6814;118510;-80
2023/04/05 03:43:38;;;;;;;8.40;7.80;;;4.20;39.10;;;;;;20603;6814;278512;-79
2023/04/05 03:46:05;;;;;;;8.15;7.45;;;4.30;38.90;;;;;;20605;6814;306823;-80
2023/04/05 03:48:30;;;;;;;7.43;6.90;;;4.40;38.70;;;;;;20518;6840;309175;-79
2023/04/05 03:50:56;;;;;;;7.78;7.12;;;4.60;38.40;;;;;;20791;6814;117228;-82
2023/04/05 03:53:22;;;;;;;6.70;6.00;;;4.50;38.80;;;;;;20820;6814;120731;-79
2023/04/05 03:55:49;;;;;;;10.45;9.65;;;4.10;39.30;;;;;;20601;6814;277891;-79
2023/04/05 03:58:13;;;;;;;8.63;7.93;;;4.10;39.50;;;;;;20815;6814;117370;-80
2023/04/05 04:00:38;;;;;;;8.98;8.30;;;3.90;39.40;;;;;;20534;6840;306486;-81
2023/04/05 04:03:04;;;;;;;8.57;7.70;;;4.00;39.80;;;;;;20821;6814;117449;-79
2023/04/05 04:05:30;;;;;;;9.47;8.70;;;3.90;39.80;;;;;;20616;6814;305487;-80
2023/04/05 04:07:55;;;;;;;8.57;7.97;;;3.90;39.80;;;;;;20617;6814;294955;-83
2023/04/05 04:10:21;;;;;;;8.90;8.30;;;4.20;39.70;;;;;;20610;6814;277482;-79
2023/04/05 04:12:46;;;;;;;7.80;7.15;;;4.40;39.10;;;;;;20798;6814;118854;-81
2023/04/05 04:15:12;;;;;;;8.85;8.13;;;4.10;39.10;;;;;;20587;6814;311321;-81
2023/04/05 04:17:38;;;;;;;7.68;7.18;;;3.90;39.70;;;;;;20830;6814;117998;-80
2023/04/05 04:20:09;;;;;;;9.00;8.27;;;3.90;39.70;;;;;;20823;6814;116987;-81
2023/04/05 04:22:33;;;;;;;7.60;7.00;;;3.60;40.20;;;;;;20800;6814;118197;-78
2023/04/05 04:25:03;;;;;;;6.83;6.43;;;3.40;40.60;;;;;;20709;6840;118278;-78
2023/04/05 04:27:28;;;;;;;6.97;6.47;;;3.10;41.00;;;;;;20805;6814;117106;-81
2023/04/05 04:30:00;;;;;;;7.33;6.67;;;2.90;41.20;;;;;;20811;6814;117300;-81
2023/04/05 04:32:26;;;;;;;6.82;6.22;;;2.80;41.50;;;;;;20804;6814;117375;-81
2023/04/05 04:34:47;;;;;;;7.27;6.67;;;2.70;41.70;;;;;;20706;6840;118352;-78
2023/04/05 04:37:17;;;;;;;6.05;5.65;;;2.60;41.90;;;;;;20818;6814;117832;-74
2023/04/05 04:39:43;;;;;;;8.13;7.53;;;2.40;42.00;;;;;;20593;6803;276697;-79
2023/04/05 04:42:09;;;;;;;7.17;6.67;;;2.60;42.60;;;;;;20826;6801;118179;-80
2023/04/05 04:44:33;;;;;;;7.85;7.25;;;2.70;42.30;;;;;;20600;6813;326761;-80
2023/04/05 04:46:58;;;;;;;7.33;6.63;;;2.90;42.40;;;;;;20813;6813;146266;-81
2023/04/05 04:49:24;;;;;;;9.48;8.75;;;2.90;42.00;;;;;;20615;6813;308506;-82
2023/04/05 04:51:50;;;;;;;8.70;7.90;;;3.10;42.10;;;;;;20881;6813;67559;-83
2023/04/05 04:54:19;;;;;;;9.20;7.45;;;3.00;41.90;;;;;;20846;6813;120669;-78
2023/04/05 04:56:41;;;;;;;9.13;8.43;;;2.90;42.20;;;;;;20592;6813;322876;-77
2023/04/05 04:59:06;;;;;;;7.95;7.45;;;3.00;42.80;;;;;;20583;6813;344479;-79
2023/04/05 05:01:32;;;;;;;8.07;6.75;;;3.40;42.50;;;;;;20820;6813;116797;-78
2023/04/05 05:03:59;;;;;;;7.07;6.57;;;3.40;42.10;;;;;;20816;6813;118020;-82
2023/04/05 05:06:28;;;;;;;7.80;7.10;;;3.10;42.20;;;;;;20609;6813;298788;-80
2023/04/05 05:08:51;;;;;;;6.30;5.77;;;3.20;42.30;;;;;;20792;6813;118193;-80
2023/04/05 05:11:18;;;;;;;6.00;5.60;;;3.20;42.10;;;;;;20803;6813;116102;-79
2023/04/05 05:13:43;;;;;;;7.13;6.30;;;3.00;42.40;;;;;;20588;6813;330728;-79
2023/04/05 05:16:09;;;;;;;7.13;6.53;;;3.40;42.20;;;;;;20604;6813;316265;-79
2023/04/05 05:18:35;;;;;;;7.33;6.83;;;3.40;42.20;;;;;;20596;6814;301138;-80
2023/04/05 05:21:00;;;;;;;6.90;6.40;;;3.70;41.80;;;;;;20588;6814;281874;-80
2023/04/05 05:23:27;;;;;;;7.25;6.75;;;3.90;41.40;;;;;;20599;6814;304167;-79
2023/04/05 05:25:56;;;;;;;6.00;5.60;;;4.10;41.10;;;;;;20814;6814;117015;-77
2023/04/05 05:28:21;;;;;;;5.90;5.50;;;3.90;41.10;;;;;;20795;6814;116834;-74
2023/04/05 05:30:47;;;;;;;7.20;6.80;;;3.50;41.60;;;;;;20578;6814;277868;-74
2023/04/05 05:33:13;;;;;;;7.17;6.73;;;3.60;42.10;;;;;;20621;6814;306046;-77
2023/04/05 05:35:38;;;;;;;6.50;6.10;;;3.80;41.50;;;;;;20828;6814;120048;-79
2023/04/05 05:38:04;;;;;;;7.00;6.60;;;3.70;41.50;;;;;;20607;6814;332020;-78
2023/04/05 05:40:29;;;;;;;7.60;7.10;;;3.70;41.50;;;;;;20608;6814;300221;-81
2023/04/05 05:42:56;;;;;;;7.85;7.18;;;4.20;40.90;;;;;;20584;6814;278028;-78
2023/04/05 05:45:21;;;;;;;6.90;6.20;;;4.20;40.90;;;;;;20800;6814;119076;-74
2023/04/05 05:47:47;;;;;;;6.93;6.30;;;4.00;40.80;;;;;;20815;6814;117817;-75
2023/04/05 05:50:12;;;;;;;7.93;6.63;;;3.70;41.30;;;;;;20813;6814;117032;-78
2023/04/05 05:52:38;;;;;;;7.27;6.57;;;3.40;41.80;;;;;;20807;6812;116916;-85
2023/04/05 05:55:05;;;;;;;10.10;9.23;;;3.10;42.60;;;;;;20808;6813;116800;-76
2023/04/05 05:57:30;;;;;;;6.03;5.63;;;3.10;42.60;;;;;;20815;6813;118779;-78
2023/04/05 05:59:59;;;;;;;7.50;6.90;;;3.00;42.90;;;;;;20607;6813;276663;-77
2023/04/05 06:02:25;;;;;;;6.63;6.13;;;3.30;43.50;;;;;;20816;6813;116502;-77
2023/04/05 06:04:50;;;;;;;7.35;6.85;;;3.40;43.20;;;;;;20579;6813;310171;-81
2023/04/05 06:07:16;;;;;;;7.70;7.10;;;3.60;43.30;;;;;;20607;6813;277589;-77
2023/04/05 06:09:44;;;;;;;6.68;6.18;;;4.00;43.30;;;;;;20831;6813;118470;-76
2023/04/05 06:12:07;;;;;;;7.30;6.77;;;4.10;43.30;;;;;;20829;6813;117091;-78
2023/04/05 06:14:33;;;;;;;6.87;6.23;;;4.20;44.60;;;;;;20832;6813;116912;-74
2023/04/05 06:16:59;;;;;;;7.47;6.80;;;4.20;44.60;;;;;;20797;6813;118027;-81
2023/04/05 06:19:24;;;;;;;8.27;7.62;;;4.40;45.00;;;;;;20602;6813;300801;-80
2023/04/05 06:21:50;;;;;;;8.50;7.90;;;4.80;44.10;;;;;;20585;6813;306969;-76
2023/04/05 06:24:15;;;;;;;8.38;7.60;;;5.30;42.90;;;;;;20598;6813;306415;-77
2023/04/05 06:26:41;;;;;;;8.70;7.93;;;5.80;42.10;;;;;;20604;6813;335891;-80
2023/04/05 06:29:07;;;;;;;9.00;8.20;;;6.20;41.30;;;;;;20572;6813;324322;-77
2023/04/05 06:31:33;;;;;;;7.40;6.78;;;6.50;40.30;;;;;;20812;6814;116973;-76
2023/04/05 06:33:59;;;;;;;8.07;7.37;;;6.40;40.30;;;;;;20560;6814;304611;-76
2023/04/05 06:36:25;;;;;;;9.53;6.80;;;6.50;39.20;;;;;;20808;6814;116754;-76
2023/04/05 06:38:50;;;;;;;6.70;6.20;;;6.50;39.40;;;;;;20786;6814;116932;-79
2023/04/05 06:41:21;;;;;;;7.50;6.80;;;6.10;40.30;;;;;;20758;6814;117100;-78
2023/04/05 06:43:46;;;;;;;8.05;7.40;;;6.10;40.30;;;;;;20601;6814;280994;-77
2023/04/05 06:46:13;;;;;;;7.57;6.97;;;6.30;40.10;;;;;;20813;6814;116770;-75
2023/04/05 06:48:38;;;;;;;8.70;7.90;;;6.30;40.10;;;;;;20605;6814;277456;-75
2023/04/05 06:51:04;;;;;;;9.47;7.57;;;6.40;39.40;;;;;;20786;6814;117752;-77
2023/04/05 06:53:29;;;;;;;7.87;7.15;;;6.40;39.40;;;;;;20811;6814;116861;-81
2023/04/05 06:55:55;;;;;;;8.52;7.72;;;6.30;39.70;;;;;;20819;6814;117505;-80
2023/04/05 06:58:20;;;;;;;10.27;9.47;;;6.20;40.20;;;;;;20590;6814;306821;-76
2023/04/05 07:00:46;;;;;;;10.70;9.80;;;6.40;39.50;;;;;;20577;6814;309673;-85
2023/04/05 07:03:13;;;;;;;9.37;8.47;;;6.80;39.00;;;;;;20815;6814;122632;-78
2023/04/05 07:05:38;;;;;;;9.57;8.83;;;6.90;39.10;;;;;;20818;6812;116693;-76
2023/04/05 07:08:04;;;;;;;10.23;9.43;;;6.90;39.60;;;;;;20606;6813;281459;-76
2023/04/05 07:10:30;;;;;;;12.55;10.13;;;7.10;38.30;;;;;;20800;6813;118958;-80
2023/04/05 07:12:55;;;;;;;9.97;9.17;;;7.30;38.60;;;;;;20565;6813;325561;-81
2023/04/05 07:15:21;;;;;;;9.10;8.32;;;7.80;37.60;;;;;;20867;6813;118493;-81
2023/04/05 07:17:47;;;;;;;10.07;8.17;;;7.70;37.50;;;;;;20825;6813;116725;-78
2023/04/05 07:20:16;;;;;;;9.10;8.50;;;7.60;38.50;;;;;;20833;6813;117022;-82
2023/04/05 07:22:42;;;;;;;9.37;8.53;;;7.60;38.50;;;;;;20815;6813;116953;-80
2023/04/05 07:25:08;;;;;;;8.80;8.10;;;7.60;38.80;;;;;;20817;6813;116179;-82
2023/04/05 07:27:33;;;;;;;8.23;7.63;;;7.60;39.00;;;;;;20838;6813;117035;-81
2023/04/05 07:30:00;;;;;;;8.97;8.27;;;7.70;39.20;;;;;;20622;6813;306064;-84
2023/04/05 07:32:26;;;;;;;9.10;8.30;;;8.10;38.60;;;;;;20621;6813;307404;-80
2023/04/05 07:34:51;;;;;;;9.32;8.50;;;8.70;37.10;;;;;;20571;6813;307486;-79
2023/04/05 07:37:17;;;;;;;9.03;8.23;;;9.30;35.80;;;;;;20809;6813;117231;-78
2023/04/05 07:39:43;;;;;;;9.20;8.50;;;9.70;34.40;;;;;;20604;6813;306101;-79
2023/04/05 07:42:09;;;;;;;9.43;8.17;;;9.70;34.40;;;;;;20823;6814;117687;-79
2023/04/05 07:44:35;;;;;;;9.03;7.93;;;9.50;35.70;;;;;;20830;6814;117147;-82
2023/04/05 07:47:02;;;;;;;8.90;8.20;;;9.50;35.70;;;;;;20613;6814;278753;-81
2023/04/05 07:49:27;;;;;;;9.20;8.40;;;9.70;34.90;;;;;;20598;6814;310156;-79
2023/04/05 07:51:52;;;;;;;8.47;7.87;;;10.10;32.80;;;;;;20800;6814;117242;-80
2023/04/05 07:54:20;;;;;;;7.75;7.07;;;10.20;33.90;;;;;;20820;6814;117085;-81
2023/04/05 07:56:45;;;;;;;7.50;6.83;;;10.20;33.90;;;;;;20801;6814;120763;-81
2023/04/05 07:59:12;;;;;;;7.53;6.87;;;10.10;34.00;;;;;;20827;6814;117157;-81
2023/04/05 08:01:38;;;;;;;9.07;8.17;;;10.00;34.20;;;;;;20824;6814;119218;-81
2023/04/05 08:04:03;;;;;;;7.28;6.72;;;9.90;35.20;;;;;;20816;6814;116888;-78
2023/04/05 08:06:30;;;;;;;7.17;6.50;;;9.90;35.70;;;;;;20808;6814;117607;-76
2023/04/05 08:08:57;;;;;;;7.23;6.73;;;9.90;35.80;;;;;;20516;6814;338334;-79
2023/04/05 08:11:23;;;;;;;6.57;6.00;;;10.30;32.40;;;;;;20759;6814;123468;-76
2023/04/05 08:13:52;;;;;;;7.30;6.80;;;10.40;32.40;;;;;;20811;6814;117539;-77
2023/04/05 08:16:17;;;;;;;11.70;10.70;;;10.40;32.40;;;;;;20815;6812;117017;-76
2023/04/05 08:18:43;;;;;;;6.57;6.07;;;10.40;32.50;;;;;;20797;6813;117520;-76
2023/04/05 08:21:08;;;;;;;7.85;7.15;;;10.30;32.60;;;;;;20587;6813;306418;-77
2023/04/05 08:23:35;;;;;;;6.40;6.00;;;10.50;30.50;;;;;;20820;6813;117618;-76
2023/04/05 08:26:00;;;;;;;7.43;6.90;;;10.50;30.50;;;;;;20817;6813;117051;-76
2023/04/05 08:28:26;;;;;;;10.73;9.95;;;10.40;30.90;;;;;;20599;6813;310922;-77
2023/04/05 08:30:51;;;;;;;7.47;6.97;;;10.50;29.90;;;;;;20582;6813;336399;-77
2023/04/05 08:33:17;;;;;;;9.73;8.10;;;10.80;29.00;;;;;;20605;6813;277064;-76
2023/04/05 08:35:43;;;;;;;7.40;6.78;;;11.20;28.40;;;;;;20820;6813;117906;-76
2023/04/05 08:38:08;;;;;;;7.70;7.10;;;11.20;28.90;;;;;;20588;6813;307795;-76
2023/04/05 08:40:47;;;;;;;6.43;6.03;;;11.30;29.10;;;;;;20800;6813;117114;-76
2023/04/05 08:43:12;;;;;;;7.77;7.10;;;11.30;29.40;;;;;;20614;6813;310389;-76
2023/04/05 08:45:48;;;;;;;7.85;7.20;;;11.50;28.10;;;;;;20604;6813;339714;-76
2023/04/05 08:48:13;;;;;;;6.00;5.60;;;11.80;27.50;;;;;;20745;6813;117884;-76
2023/04/05 08:50:39;;;;;;;6.37;5.90;;;11.80;28.00;;;;;;20602;6813;306927;-77
2023/04/05 08:53:05;;;;;;;7.53;6.83;;;11.90;28.00;;;;;;20795;6813;117173;-77
2023/04/05 08:55:31;;;;;;;6.20;5.70;;;11.80;28.20;;;;;;20814;6814;119331;-77
2023/04/05 08:57:58;;;;;;;6.50;6.00;;;11.70;28.50;;;;;;20604;6814;305924;-77
2023/04/05 09:00:22;;;;;;;6.80;6.20;;;11.80;26.40;;;;;;20800;6814;117044;-76
2023/04/05 09:02:48;;;;;;;6.70;6.20;;;12.10;27.50;;;;;;20587;6814;306351;-78
2023/04/05 09:05:15;;;;;;;6.93;6.43;;;12.50;26.50;;;;;;20588;6814;307379;-76
2023/04/05 09:07:40;;;;;;;6.10;5.60;;;12.40;26.40;;;;;;20813;6814;117092;-76
2023/04/05 09:10:07;;;;;;;5.53;5.18;;;12.50;26.80;;;;;;20815;6814;117028;-76
2023/04/05 09:12:33;;;;;;;5.97;5.57;;;12.40;27.50;;;;;;20813;6814;117085;-78
2023/04/05 09:14:59;;;;;;;5.82;5.32;;;12.30;27.90;;;;;;20795;6814;131091;-77
2023/04/05 09:17:24;;;;;;;3.65;3.03;;;12.30;28.00;;;;;;20811;6814;117300;-76
2023/04/05 09:19:50;;;;;;;4.07;3.78;;;12.20;27.50;;;;;;20821;6814;117326;-76
2023/04/05 09:22:17;;;;;;;3.40;3.17;;;12.00;26.90;;;;;;20602;6814;335961;-76
2023/04/05 09:24:41;;;;;;;3.90;3.60;;;12.20;23.20;;;;;;20822;6814;117066;-76
2023/04/05 09:27:10;;;;;;;3.75;3.37;;;12.30;24.20;;;;;;20592;6812;333515;-76
2023/04/05 09:29:35;;;;;;;3.42;3.12;;;12.50;21.60;;;;;;20611;6813;338517;-76
2023/04/05 09:32:04;;;;;;;3.67;3.40;;;12.90;21.00;;;;;;20605;6813;305813;-76
2023/04/05 09:34:27;;;;;;;3.30;3.10;;;12.90;21.00;;;;;;20575;6813;338446;-76
2023/04/05 09:36:52;;;;;;;3.87;3.57;;;13.10;20.40;;;;;;20578;6813;305633;-76
2023/04/05 09:39:21;;;;;;;4.07;3.72;;;13.20;20.30;;;;;;20819;6813;117516;-77
2023/04/05 09:41:43;;;;;;;3.80;3.50;;;13.10;21.70;;;;;;20772;6813;116951;-77
2023/04/05 09:44:09;;;;;;;3.60;3.40;;;12.90;22.60;;;;;;20540;6813;307166;-77
2023/04/05 09:46:36;;;;;;;3.70;3.40;;;13.00;21.40;;;;;;20821;6813;117382;-77
2023/04/05 09:49:00;;;;;;;5.63;5.13;;;12.90;22.00;;;;;;20590;6813;286946;-77
2023/04/05 09:51:32;;;;;;;4.00;3.70;;;13.10;22.10;;;;;;20612;6813;290931;-77
2023/04/05 09:54:07;;;;;;;4.12;3.80;;;13.40;22.30;;;;;;20606;6813;333094;-77
2023/04/05 09:56:34;;;;;;;4.10;3.80;;;13.70;21.50;;;;;;20602;6813;315225;-79
2023/04/05 09:59:00;;;;;;;4.13;3.83;;;13.90;20.50;;;;;;20791;6813;148327;-77
2023/04/05 10:01:32;;;;;;;5.28;4.93;;;13.70;21.30;;;;;;20604;6813;277833;-79
2023/04/05 10:03:58;;;;;;;4.90;4.60;;;13.60;21.20;;;;;;20817;6813;116987;-78
2023/04/05 10:06:34;;;;;;;5.28;4.97;;;13.60;22.20;;;;;;20613;6814;281147;-83
2023/04/05 10:08:59;;;;;;;5.80;5.30;;;13.60;22.00;;;;;;20806;6814;117305;-80
2023/04/05 10:11:25;;;;;;;6.62;6.05;;;13.50;22.70;;;;;;20812;6814;117818;-79
2023/04/05 10:13:51;;;;;;;6.07;5.57;;;13.40;22.00;;;;;;20609;6814;276539;-73
2023/04/05 10:16:18;;;;;;;5.10;4.77;;;13.30;22.00;;;;;;20813;6814;118784;-75
2023/04/05 10:18:43;;;;;;;5.50;5.20;;;13.30;22.60;;;;;;20605;6814;306900;-75
2023/04/05 10:21:10;;;;;;;5.30;5.00;;;13.60;22.40;;;;;;20563;6814;336461;-77
2023/04/05 10:23:36;;;;;;;5.55;5.10;;;13.80;21.30;;;;;;20598;6814;339587;-75
2023/04/05 10:26:18;;;;;;;5.87;5.47;;;13.70;21.20;;;;;;20596;6814;306692;-77
2023/04/05 10:28:43;;;;;;;6.73;4.93;;;13.90;21.90;;;;;;20800;6814;117029;-74
2023/04/05 10:31:30;;;;;;;5.47;5.07;;;13.50;23.10;;;;;;20776;6814;118268;-73
2023/04/05 10:34:02;;;;;;;5.40;4.90;;;13.50;23.10;;;;;;20803;6814;118222;-73
2023/04/05 10:36:41;;;;;;;5.53;5.13;;;13.30;23.40;;;;;;20795;6814;117386;-72
2023/04/05 10:39:26;;;;;;;5.57;5.07;;;13.10;23.70;;;;;;20789;6812;122797;-73
2023/04/05 10:41:52;;;;;;;6.30;5.47;;;13.00;24.00;;;;;;20821;6813;122839;-74
2023/04/05 10:44:17;;;;;;;6.23;5.57;;;12.90;24.10;;;;;;20605;6813;315725;-74
2023/04/05 10:46:43;;;;;;;6.03;5.63;;;13.00;23.00;;;;;;20607;6813;280279;-73
2023/04/05 10:49:36;;;;;;;5.93;5.43;;;13.50;23.60;;;;;;20799;6813;117123;-74
2023/04/05 10:52:04;;;;;;;6.28;5.78;;;13.70;22.80;;;;;;20589;6813;281618;-75
2023/04/05 10:54:33;;;;;;;5.80;5.30;;;13.70;22.90;;;;;;20814;6813;117328;-75
2023/04/05 10:56:58;;;;;;;6.00;4.93;;;13.70;23.70;;;;;;20797;6813;117343;-75
2023/04/05 10:59:24;;;;;;;6.25;5.72;;;13.70;24.10;;;;;;20814;6813;117139;-74
2023/04/05 11:01:49;;;;;;;5.90;5.32;;;13.60;24.40;;;;;;20596;6813;338399;-75
2023/04/05 11:04:15;;;;;;;6.12;5.62;;;13.70;23.60;;;;;;20592;6813;278415;-76
2023/04/05 11:06:41;;;;;;;6.20;5.80;;;14.00;22.60;;;;;;20816;6813;117124;-75
2023/04/05 11:09:22;;;;;;;5.90;5.53;;;14.00;23.20;;;;;;20759;6813;123762;-75
2023/04/05 11:11:48;;;;;;;5.50;5.20;;;13.90;23.50;;;;;;20804;6813;117006;-78
2023/04/05 11:14:20;;;;;;;6.47;5.97;;;13.70;24.00;;;;;;20604;6813;277456;-73
2023/04/05 11:16:46;;;;;;;5.60;5.30;;;13.80;22.80;;;;;;20587;6814;277038;-75
2023/04/05 11:19:11;;;;;;;6.20;5.80;;;14.00;22.70;;;;;;20574;6822;307305;-73
2023/04/05 11:21:37;;;;;;;5.87;5.53;;;14.20;24.00;;;;;;20791;6822;117611;-74
2023/04/05 11:24:10;;;;;;;6.07;5.57;;;14.20;23.90;;;;;;20582;6822;340941;-75
2023/04/05 11:26:48;;;;;;;5.80;5.37;;;14.20;23.10;;;;;;20791;6822;117101;-72
2023/04/05 11:29:16;;;;;;;5.53;5.13;;;14.20;24.00;;;;;;20796;6822;117587;-75
2023/04/05 11:31:59;;;;;;;6.77;5.30;;;14.00;24.50;;;;;;20798;6822;117066;-74
2023/04/05 11:34:24;;;;;;;5.80;5.30;;;13.80;24.50;;;;;;20538;6822;307995;-75
2023/04/05 11:36:50;;;;;;;5.17;4.77;;;14.20;24.20;;;;;;20564;6822;282232;-76
2023/04/05 11:39:20;;;;;;;5.43;5.13;;;14.10;24.10;;;;;;20788;6822;117252;-75
2023/04/05 11:41:45;;;;;;;6.03;5.43;;;14.20;24.20;;;;;;20791;6822;117035;-75
2023/04/05 11:44:16;;;;;;;5.10;4.70;;;13.90;24.40;;;;;;20783;6822;117000;-76
2023/04/05 11:46:47;;;;;;;6.60;6.10;;;13.90;24.40;;;;;;20776;6822;117659;-76
2023/04/05 11:49:12;;;;;;;6.87;6.47;;;13.70;24.40;;;;;;20788;6822;117759;-76
2023/04/05 11:51:41;;;;;;;5.78;5.35;;;13.50;24.40;;;;;;20581;6820;333787;-75
2023/04/05 11:54:04;;;;;;;6.03;5.47;;;13.50;23.60;;;;;;20577;6821;278958;-76
2023/04/05 11:56:30;;;;;;;6.30;5.90;;;13.80;23.20;;;;;;20583;6821;311733;-77
2023/04/05 11:58:59;;;;;;;6.07;5.57;;;14.00;23.40;;;;;;20778;6821;118212;-75
2023/04/05 12:01:25;;;;;;;5.70;5.27;;;14.10;23.50;;;;;;20790;6822;117088;-72
2023/04/05 12:03:54;;;;;;;6.05;5.75;;;13.80;23.80;;;;;;20579;6822;307435;-72
2023/04/05 12:06:19;;;;;;;6.47;5.97;;;13.90;23.50;;;;;;20790;6822;117268;-72
2023/04/05 12:08:52;;;;;;;6.72;5.68;;;13.60;24.10;;;;;;20786;6822;115985;-74
2023/04/05 12:11:27;;;;;;;5.30;4.90;;;13.60;24.10;;;;;;20656;6822;117228;-70
2023/04/05 12:13:53;;;;;;;5.40;5.10;;;13.50;24.70;;;;;;20792;6822;122807;-72
2023/04/05 12:16:19;;;;;;;5.73;5.37;;;13.40;25.00;;;;;;20799;6822;121312;-73
2023/04/05 12:18:44;;;;;;;6.30;5.80;;;13.30;24.90;;;;;;20586;6822;278491;-74
2023/04/05 12:21:11;;;;;;;6.15;5.75;;;13.80;23.10;;;;;;20543;6822;278557;-72
2023/04/05 12:23:36;;;;;;;6.47;5.97;;;13.80;23.10;;;;;;20798;6822;116998;-72
2023/04/05 12:26:02;;;;;;;6.12;5.72;;;13.80;23.00;;;;;;20794;6822;117086;-74
2023/04/05 12:28:54;;;;;;;5.93;5.53;;;13.40;23.20;;;;;;20791;6822;117499;-72
2023/04/05 12:31:42;;;;;;;5.97;5.43;;;13.20;23.60;;;;;;20762;6822;117650;-73
2023/04/05 12:34:07;;;;;;;6.20;5.80;;;12.90;24.20;;;;;;20567;6822;315042;-74
2023/04/05 12:36:35;;;;;;;5.70;5.30;;;13.50;24.30;;;;;;20579;6822;318413;-75
2023/04/05 12:39:01;;;;;;;8.45;7.85;;;13.80;23.50;;;;;;20556;6822;311467;-72
2023/04/05 12:41:30;;;;;;;5.80;5.40;;;13.80;23.50;;;;;;20779;6822;117906;-73